Photometre #648[NE_1.6] Paris AOT

File : 20190928_648.hum

28/09/2019,06:40:04,TEMP=15.0,BA=5.52,STAT.A=1.0,ExtBa=13.93
28/09/2019,06:44:02,TEMP=15.2,BA=5.52,STAT.A=0.5,ExtBa=13.91
28/09/2019,06:48:41,TEMP=15.3,BA=5.52,STAT.A=1.0,ExtBa=13.86
28/09/2019,06:54:13,TEMP=15.6,BA=5.48,STAT.A=1.0,ExtBa=13.89
28/09/2019,07:00:55,TEMP=15.9,BA=5.60,STAT.A=1.0,ExtBa=13.92
28/09/2019,07:09:12,TEMP=16.2,BA=5.60,STAT.A=1.0,ExtBa=13.95
28/09/2019,07:19:44,TEMP=17.0,BA=5.48,STAT.B=1.0,ExtBa=13.96
28/09/2019,07:31:09,TEMP=17.9,BA=5.44,STAT.A=1.0,ExtBa=12.89
28/09/2019,07:33:22,TEMP=18.2,BA=5.44,STAT.A=1.0,ExtBa=12.99
28/09/2019,07:36:56,TEMP=18.1,BA=5.44,STAT.A=1.0,ExtBa=13.10
28/09/2019,07:44:18,TEMP=18.1,BA=5.60,STAT.A=1.0,ExtBa=13.37
28/09/2019,07:52:50,TEMP=18.4,BA=5.60,STAT.C=1.0,ExtBa=13.54
28/09/2019,08:11:51,TEMP=18.5,BA=5.44,STAT.A=1.0,ExtBa=12.91
28/09/2019,08:14:48,TEMP=18.5,BA=5.44,STAT.A=1.0,ExtBa=12.91
28/09/2019,08:29:23,TEMP=17.7,BA=5.60,STAT.A=1.0,ExtBa=13.45
28/09/2019,08:42:02,TEMP=18.5,BA=5.60,STAT.F,ExtBa=13.51
28/09/2019,09:01:14,TEMP=19.4,BA=5.44,STAT.b=1.0
28/09/2019,09:12:00,TEMP=19.4,BA=5.60,STAT.D=1.0,ExtBa=13.39
28/09/2019,09:27:00,TEMP=19.5,BA=5.60,STAT.D=1.0,ExtBa=13.53
28/09/2019,09:42:02,TEMP=20.0,BA=5.60,STAT.F,ExtBa=13.52
28/09/2019,09:57:01,TEMP=19.4,BA=5.60,STAT.D=1.0,ExtBa=13.61
28/09/2019,10:12:01,TEMP=20.8,BA=5.60,STAT.D=1.0,ExtBa=13.70
28/09/2019,10:27:01,TEMP=20.7,BA=5.60,STAT.D=1.5,ExtBa=13.82
28/09/2019,10:42:02,TEMP=21.8,BA=5.60,STAT.F,ExtBa=13.85
28/09/2019,10:57:01,TEMP=20.7,BA=5.60,STAT.D=1.5,ExtBa=13.95
28/09/2019,11:12:01,TEMP=21.2,BA=5.60,STAT.D=1.5,ExtBa=13.95
28/09/2019,11:27:01,TEMP=21.4,BA=5.60,STAT.D=1.5,ExtBa=13.95
28/09/2019,11:42:02,TEMP=20.6,BA=5.60,STAT.F,ExtBa=13.91
28/09/2019,11:57:01,TEMP=20.3,BA=5.60,STAT.D=1.5,ExtBa=13.95
28/09/2019,12:12:01,TEMP=20.7,BA=5.60,STAT.D=1.5,ExtBa=13.94
28/09/2019,12:27:01,TEMP=20.9,BA=5.60,STAT.D=1.5,ExtBa=13.93
28/09/2019,13:00:38,TEMP=23.2,BA=5.44,STAT.b=1.5
28/09/2019,13:12:00,TEMP=22.3,BA=5.56,STAT.D=1.5,ExtBa=13.49
28/09/2019,13:27:01,TEMP=22.3,BA=5.56,STAT.D=1.5,ExtBa=13.63
28/09/2019,13:42:02,TEMP=22.2,BA=5.56,STAT.F,ExtBa=13.80
28/09/2019,13:57:01,TEMP=23.3,BA=5.60,STAT.D=1.5,ExtBa=13.90
28/09/2019,14:12:00,TEMP=23.5,BA=5.60,STAT.D=1.5,ExtBa=13.90
28/09/2019,14:27:00,TEMP=22.7,BA=5.56,STAT.D=1.5,ExtBa=13.89
28/09/2019,14:42:02,TEMP=23.0,BA=5.56,STAT.F,ExtBa=13.85
28/09/2019,15:00:57,TEMP=23.2,BA=5.40,STAT.A=1.5,ExtBa=13.01
28/09/2019,15:09:16,TEMP=23.1,BA=5.40,STAT.A=1.5,ExtBa=13.35
28/09/2019,15:21:12,TEMP=22.3,BA=5.56,STAT.A=1.5,ExtBa=13.50
28/09/2019,15:31:12,TEMP=22.3,BA=5.56,STAT.C=1.5,ExtBa=13.54
28/09/2019,15:39:44,TEMP=21.7,BA=5.56,STAT.A=1.5,ExtBa=13.58
28/09/2019,15:47:06,TEMP=21.4,BA=5.40,STAT.A=1.5,ExtBa=13.63
28/09/2019,15:53:33,TEMP=21.3,BA=5.48,STAT.A=1.5,ExtBa=13.66
28/09/2019,15:59:14,TEMP=21.4,BA=5.48,STAT.A=1.5,ExtBa=13.65
28/09/2019,16:04:17,TEMP=21.4,BA=5.40,STAT.B=1.5,ExtBa=13.68
28/09/2019,16:16:15,TEMP=21.5,BA=5.40,STAT.A=1.5,ExtBa=12.99
28/09/2019,16:23:07,TEMP=21.3,BA=5.40,STAT.A=1.5,ExtBa=13.30
28/09/2019,16:29:49,TEMP=21.2,BA=5.40,STAT.A=1.5,ExtBa=13.43
28/09/2019,16:35:21,TEMP=21.2,BA=5.40,STAT.A=1.5,ExtBa=13.45
28/09/2019,16:40:00,TEMP=21.0,BA=5.40,STAT.A=1.5,ExtBa=13.47
28/09/2019,16:43:58,TEMP=20.9,BA=5.40,STAT.A=1.5,ExtBa=13.47